sensor_id;sensor_type;location;lat;lon;timestamp;temperature;humidity
47861;HTU21D;33620;52.340;5.984;2024-03-08T00:00:11;3.74;86.44
47861;HTU21D;33620;52.340;5.984;2024-03-08T00:02:40;3.76;86.50
47861;HTU21D;33620;52.340;5.984;2024-03-08T00:05:07;3.74;86.32
47861;HTU21D;33620;52.340;5.984;2024-03-08T00:07:37;3.76;86.29
47861;HTU21D;33620;52.340;5.984;2024-03-08T00:10:04;3.74;86.32
47861;HTU21D;33620;52.340;5.984;2024-03-08T00:12:29;3.72;86.01
47861;HTU21D;33620;52.340;5.984;2024-03-08T00:14:56;3.71;86.12
47861;HTU21D;33620;52.340;5.984;2024-03-08T00:17:21;3.67;86.16
47861;HTU21D;33620;52.340;5.984;2024-03-08T00:19:48;3.69;86.33
47861;HTU21D;33620;52.340;5.984;2024-03-08T00:22:15;3.69;86.20
47861;HTU21D;33620;52.340;5.984;2024-03-08T00:24:40;3.67;86.03
47861;HTU21D;33620;52.340;5.984;2024-03-08T00:27:06;3.59;86.02
47861;HTU21D;33620;52.340;5.984;2024-03-08T00:29:31;3.58;86.11
47861;HTU21D;33620;52.340;5.984;2024-03-08T00:31:57;3.57;86.21
47861;HTU21D;33620;52.340;5.984;2024-03-08T00:34:23;3.57;86.23
47861;HTU21D;33620;52.340;5.984;2024-03-08T00:36:48;3.54;86.25
47861;HTU21D;33620;52.340;5.984;2024-03-08T00:39:14;3.52;86.14
47861;HTU21D;33620;52.340;5.984;2024-03-08T00:41:39;3.46;86.18
47861;HTU21D;33620;52.340;5.984;2024-03-08T00:44:04;3.44;86.27
47861;HTU21D;33620;52.340;5.984;2024-03-08T00:46:30;3.42;86.45
47861;HTU21D;33620;52.340;5.984;2024-03-08T00:48:56;3.45;86.34
47861;HTU21D;33620;52.340;5.984;2024-03-08T00:51:22;3.44;86.25
47861;HTU21D;33620;52.340;5.984;2024-03-08T00:53:47;3.42;86.25
47861;HTU21D;33620;52.340;5.984;2024-03-08T00:56:13;3.39;86.25
47861;HTU21D;33620;52.340;5.984;2024-03-08T00:58:38;3.38;86.36
47861;HTU21D;33620;52.340;5.984;2024-03-08T01:01:04;3.36;86.28
47861;HTU21D;33620;52.340;5.984;2024-03-08T01:03:33;3.33;86.22
47861;HTU21D;33620;52.340;5.984;2024-03-08T01:05:59;3.34;86.25
47861;HTU21D;33620;52.340;5.984;2024-03-08T01:08:26;3.35;86.28
47861;HTU21D;33620;52.340;5.984;2024-03-08T01:10:52;3.32;86.28
47861;HTU21D;33620;52.340;5.984;2024-03-08T01:13:18;3.26;86.21
47861;HTU21D;33620;52.340;5.984;2024-03-08T01:15:44;3.26;86.34
47861;HTU21D;33620;52.340;5.984;2024-03-08T01:18:10;3.26;86.39
47861;HTU21D;33620;52.340;5.984;2024-03-08T01:20:35;3.26;86.32
47861;HTU21D;33620;52.340;5.984;2024-03-08T01:23:01;3.23;86.35
47861;HTU21D;33620;52.340;5.984;2024-03-08T01:25:26;3.21;86.22
47861;HTU21D;33620;52.340;5.984;2024-03-08T01:27:52;3.16;86.29
47861;HTU21D;33620;52.340;5.984;2024-03-08T01:30:19;3.14;86.38
47861;HTU21D;33620;52.340;5.984;2024-03-08T01:32:44;3.12;86.40
47861;HTU21D;33620;52.340;5.984;2024-03-08T01:35:10;3.12;86.28
47861;HTU21D;33620;52.340;5.984;2024-03-08T01:37:36;3.09;86.41
47861;HTU21D;33620;52.340;5.984;2024-03-08T01:40:01;3.11;86.59
47861;HTU21D;33620;52.340;5.984;2024-03-08T01:42:28;3.08;86.29
47861;HTU21D;33620;52.340;5.984;2024-03-08T01:44:53;3.05;86.37
47861;HTU21D;33620;52.340;5.984;2024-03-08T01:47:20;3.02;86.33
47861;HTU21D;33620;52.340;5.984;2024-03-08T01:49:49;3.04;86.50
47861;HTU21D;33620;52.340;5.984;2024-03-08T01:52:14;3.08;86.32
47861;HTU21D;33620;52.340;5.984;2024-03-08T01:54:40;3.06;86.32
47861;HTU21D;33620;52.340;5.984;2024-03-08T01:57:06;3.03;86.12
47861;HTU21D;33620;52.340;5.984;2024-03-08T01:59:31;3.04;86.20
47861;HTU21D;33620;52.340;5.984;2024-03-08T02:02:01;3.04;86.23
47861;HTU21D;33620;52.340;5.984;2024-03-08T02:04:27;3.01;86.16
47861;HTU21D;33620;52.340;5.984;2024-03-08T02:06:52;3.01;86.09
47861;HTU21D;33620;52.340;5.984;2024-03-08T02:09:17;3.00;85.93
47861;HTU21D;33620;52.340;5.984;2024-03-08T02:11:43;3.00;86.01
47861;HTU21D;33620;52.340;5.984;2024-03-08T02:14:08;3.02;86.00
47861;HTU21D;33620;52.340;5.984;2024-03-08T02:16:34;3.03;86.03
47861;HTU21D;33620;52.340;5.984;2024-03-08T02:19:00;3.03;85.93
47861;HTU21D;33620;52.340;5.984;2024-03-08T02:21:25;3.03;85.96
47861;HTU21D;33620;52.340;5.984;2024-03-08T02:23:51;3.04;85.72
47861;HTU21D;33620;52.340;5.984;2024-03-08T02:26:17;3.04;85.71
47861;HTU21D;33620;52.340;5.984;2024-03-08T02:28:44;3.03;85.53
47861;HTU21D;33620;52.340;5.984;2024-03-08T02:31:10;3.03;85.55
47861;HTU21D;33620;52.340;5.984;2024-03-08T02:33:35;3.01;85.43
47861;HTU21D;33620;52.340;5.984;2024-03-08T02:36:01;2.99;85.51
47861;HTU21D;33620;52.340;5.984;2024-03-08T02:38:26;2.95;85.52
47861;HTU21D;33620;52.340;5.984;2024-03-08T02:40:53;2.93;85.49
47861;HTU21D;33620;52.340;5.984;2024-03-08T02:43:20;2.94;85.53
47861;HTU21D;33620;52.340;5.984;2024-03-08T02:45:47;2.90;85.42
47861;HTU21D;33620;52.340;5.984;2024-03-08T02:48:14;2.89;85.48
47861;HTU21D;33620;52.340;5.984;2024-03-08T02:50:40;2.86;85.28
47861;HTU21D;33620;52.340;5.984;2024-03-08T02:53:08;2.86;85.49
47861;HTU21D;33620;52.340;5.984;2024-03-08T02:55:33;2.85;85.39
47861;HTU21D;33620;52.340;5.984;2024-03-08T02:58:04;2.82;85.32
47861;HTU21D;33620;52.340;5.984;2024-03-08T03:00:29;2.80;85.36
47861;HTU21D;33620;52.340;5.984;2024-03-08T03:02:56;2.78;85.31
47861;HTU21D;33620;52.340;5.984;2024-03-08T03:05:22;2.75;85.34
47861;HTU21D;33620;52.340;5.984;2024-03-08T03:07:48;2.78;85.38
47861;HTU21D;33620;52.340;5.984;2024-03-08T03:10:14;2.78;85.35
47861;HTU21D;33620;52.340;5.984;2024-03-08T03:12:44;2.76;85.37
47861;HTU21D;33620;52.340;5.984;2024-03-08T03:15:13;2.76;85.36
47861;HTU21D;33620;52.340;5.984;2024-03-08T03:17:39;2.74;85.06
47861;HTU21D;33620;52.340;5.984;2024-03-08T03:20:06;2.72;85.24
47861;HTU21D;33620;52.340;5.984;2024-03-08T03:22:36;2.73;85.32
47861;HTU21D;33620;52.340;5.984;2024-03-08T03:25:03;2.73;85.21
47861;HTU21D;33620;52.340;5.984;2024-03-08T03:27:29;2.70;85.14
47861;HTU21D;33620;52.340;5.984;2024-03-08T03:29:55;2.71;85.09
47861;HTU21D;33620;52.340;5.984;2024-03-08T03:32:22;2.67;85.09
47861;HTU21D;33620;52.340;5.984;2024-03-08T03:34:48;2.66;84.93
47861;HTU21D;33620;52.340;5.984;2024-03-08T03:37:14;2.66;85.09
47861;HTU21D;33620;52.340;5.984;2024-03-08T03:39:40;2.65;85.06
47861;HTU21D;33620;52.340;5.984;2024-03-08T03:42:15;2.62;85.06
47861;HTU21D;33620;52.340;5.984;2024-03-08T03:44:43;2.62;84.96
47861;HTU21D;33620;52.340;5.984;2024-03-08T03:47:09;2.60;85.00
47861;HTU21D;33620;52.340;5.984;2024-03-08T03:49:34;2.61;84.82
47861;HTU21D;33620;52.340;5.984;2024-03-08T03:52:00;2.60;85.03
47861;HTU21D;33620;52.340;5.984;2024-03-08T03:54:25;2.59;84.93
47861;HTU21D;33620;52.340;5.984;2024-03-08T03:56:50;2.60;84.98
47861;HTU21D;33620;52.340;5.984;2024-03-08T03:59:18;2.59;84.75
47861;HTU21D;33620;52.340;5.984;2024-03-08T04:01:44;2.58;84.58
47861;HTU21D;33620;52.340;5.984;2024-03-08T04:04:09;2.56;84.76
47861;HTU21D;33620;52.340;5.984;2024-03-08T04:06:35;2.54;84.71
47861;HTU21D;33620;52.340;5.984;2024-03-08T04:09:00;2.50;84.52
47861;HTU21D;33620;52.340;5.984;2024-03-08T04:11:25;2.47;84.65
47861;HTU21D;33620;52.340;5.984;2024-03-08T04:13:51;2.43;84.68
47861;HTU21D;33620;52.340;5.984;2024-03-08T04:16:17;2.43;85.01
47861;HTU21D;33620;52.340;5.984;2024-03-08T04:18:44;2.41;84.65
47861;HTU21D;33620;52.340;5.984;2024-03-08T04:21:09;2.40;84.75
47861;HTU21D;33620;52.340;5.984;2024-03-08T04:23:34;2.38;84.77
47861;HTU21D;33620;52.340;5.984;2024-03-08T04:26:03;2.37;84.81
47861;HTU21D;33620;52.340;5.984;2024-03-08T04:28:29;2.38;84.87
47861;HTU21D;33620;52.340;5.984;2024-03-08T04:30:55;2.36;84.78
47861;HTU21D;33620;52.340;5.984;2024-03-08T04:33:20;2.36;84.70
47861;HTU21D;33620;52.340;5.984;2024-03-08T04:35:47;2.36;84.57
47861;HTU21D;33620;52.340;5.984;2024-03-08T04:38:12;2.36;84.67
47861;HTU21D;33620;52.340;5.984;2024-03-08T04:40:37;2.31;84.52
47861;HTU21D;33620;52.340;5.984;2024-03-08T04:43:03;2.31;84.79
47861;HTU21D;33620;52.340;5.984;2024-03-08T04:45:29;2.32;84.82
47861;HTU21D;33620;52.340;5.984;2024-03-08T04:47:54;2.32;84.63
47861;HTU21D;33620;52.340;5.984;2024-03-08T04:50:19;2.32;84.48
47861;HTU21D;33620;52.340;5.984;2024-03-08T04:52:45;2.31;84.56
47861;HTU21D;33620;52.340;5.984;2024-03-08T04:55:10;2.29;84.35
47861;HTU21D;33620;52.340;5.984;2024-03-08T04:57:35;2.31;84.54
47861;HTU21D;33620;52.340;5.984;2024-03-08T05:00:04;2.32;84.35
47861;HTU21D;33620;52.340;5.984;2024-03-08T05:02:37;2.31;84.30
47861;HTU21D;33620;52.340;5.984;2024-03-08T05:05:04;2.31;84.13
47861;HTU21D;33620;52.340;5.984;2024-03-08T05:07:31;2.30;84.24
47861;HTU21D;33620;52.340;5.984;2024-03-08T05:09:57;2.29;84.19
47861;HTU21D;33620;52.340;5.984;2024-03-08T05:12:23;2.29;84.09
47861;HTU21D;33620;52.340;5.984;2024-03-08T05:14:48;2.27;84.05
47861;HTU21D;33620;52.340;5.984;2024-03-08T05:17:15;2.23;84.07
47861;HTU21D;33620;52.340;5.984;2024-03-08T05:19:40;2.24;84.11
47861;HTU21D;33620;52.340;5.984;2024-03-08T05:22:06;2.22;84.03
47861;HTU21D;33620;52.340;5.984;2024-03-08T05:24:31;2.21;84.19
47861;HTU21D;33620;52.340;5.984;2024-03-08T05:26:56;2.21;84.04
47861;HTU21D;33620;52.340;5.984;2024-03-08T05:29:22;2.20;83.97
47861;HTU21D;33620;52.340;5.984;2024-03-08T05:31:49;2.20;84.00
47861;HTU21D;33620;52.340;5.984;2024-03-08T05:34:18;2.21;84.01
47861;HTU21D;33620;52.340;5.984;2024-03-08T05:36:45;2.17;83.85
47861;HTU21D;33620;52.340;5.984;2024-03-08T05:39:14;2.15;83.74
47861;HTU21D;33620;52.340;5.984;2024-03-08T05:41:40;2.14;83.96
47861;HTU21D;33620;52.340;5.984;2024-03-08T05:44:06;2.14;83.83
47861;HTU21D;33620;52.340;5.984;2024-03-08T05:46:31;2.10;83.86
47861;HTU21D;33620;52.340;5.984;2024-03-08T05:48:56;2.10;84.00
47861;HTU21D;33620;52.340;5.984;2024-03-08T05:51:24;2.11;84.00
47861;HTU21D;33620;52.340;5.984;2024-03-08T05:53:51;2.11;83.98
47861;HTU21D;33620;52.340;5.984;2024-03-08T05:56:18;2.09;83.79
47861;HTU21D;33620;52.340;5.984;2024-03-08T05:58:43;2.11;83.98
47861;HTU21D;33620;52.340;5.984;2024-03-08T06:01:09;2.11;83.93
47861;HTU21D;33620;52.340;5.984;2024-03-08T06:03:38;2.09;83.92
47861;HTU21D;33620;52.340;5.984;2024-03-08T06:06:09;2.10;83.91
47861;HTU21D;33620;52.340;5.984;2024-03-08T06:08:34;2.10;83.61
47861;HTU21D;33620;52.340;5.984;2024-03-08T06:11:00;2.06;83.80
47861;HTU21D;33620;52.340;5.984;2024-03-08T06:13:27;2.08;83.88
47861;HTU21D;33620;52.340;5.984;2024-03-08T06:15:53;2.08;83.80
47861;HTU21D;33620;52.340;5.984;2024-03-08T06:18:18;2.10;83.85
47861;HTU21D;33620;52.340;5.984;2024-03-08T06:20:43;2.09;83.78
47861;HTU21D;33620;52.340;5.984;2024-03-08T06:23:09;2.07;83.77
47861;HTU21D;33620;52.340;5.984;2024-03-08T06:25:34;2.09;83.72
47861;HTU21D;33620;52.340;5.984;2024-03-08T06:28:00;2.08;83.70
47861;HTU21D;33620;52.340;5.984;2024-03-08T06:30:25;2.08;83.83
47861;HTU21D;33620;52.340;5.984;2024-03-08T06:32:51;2.07;83.76
47861;HTU21D;33620;52.340;5.984;2024-03-08T06:35:16;2.07;83.73
47861;HTU21D;33620;52.340;5.984;2024-03-08T06:37:42;2.08;83.77
47861;HTU21D;33620;52.340;5.984;2024-03-08T06:40:09;2.10;83.84
47861;HTU21D;33620;52.340;5.984;2024-03-08T06:42:39;2.10;83.90
47861;HTU21D;33620;52.340;5.984;2024-03-08T06:45:05;2.11;83.90
47861;HTU21D;33620;52.340;5.984;2024-03-08T06:47:31;2.14;83.77
47861;HTU21D;33620;52.340;5.984;2024-03-08T06:49:57;2.13;83.74
47861;HTU21D;33620;52.340;5.984;2024-03-08T06:52:22;2.12;83.93
47861;HTU21D;33620;52.340;5.984;2024-03-08T06:54:48;2.13;83.81
47861;HTU21D;33620;52.340;5.984;2024-03-08T06:57:14;2.15;83.78
47861;HTU21D;33620;52.340;5.984;2024-03-08T06:59:39;2.16;83.94
47861;HTU21D;33620;52.340;5.984;2024-03-08T07:02:05;2.19;83.97
47861;HTU21D;33620;52.340;5.984;2024-03-08T07:04:34;2.21;83.78
47861;HTU21D;33620;52.340;5.984;2024-03-08T07:07:05;2.20;83.78
47861;HTU21D;33620;52.340;5.984;2024-03-08T07:09:35;2.16;83.84
47861;HTU21D;33620;52.340;5.984;2024-03-08T07:12:00;2.20;83.87
47861;HTU21D;33620;52.340;5.984;2024-03-08T07:14:27;2.22;84.03
47861;HTU21D;33620;52.340;5.984;2024-03-08T07:16:52;2.23;83.87
47861;HTU21D;33620;52.340;5.984;2024-03-08T07:19:18;2.26;83.91
47861;HTU21D;33620;52.340;5.984;2024-03-08T07:21:44;2.30;83.95
47861;HTU21D;33620;52.340;5.984;2024-03-08T07:24:10;2.31;83.81
47861;HTU21D;33620;52.340;5.984;2024-03-08T07:26:58;2.34;83.81
47861;HTU21D;33620;52.340;5.984;2024-03-08T07:29:24;2.37;83.81
47861;HTU21D;33620;52.340;5.984;2024-03-08T07:31:50;2.37;83.66
47861;HTU21D;33620;52.340;5.984;2024-03-08T07:34:38;2.43;83.64
47861;HTU21D;33620;52.340;5.984;2024-03-08T07:37:05;2.44;83.58
47861;HTU21D;33620;52.340;5.984;2024-03-08T07:39:31;2.45;83.41
47861;HTU21D;33620;52.340;5.984;2024-03-08T07:41:57;2.50;83.56
47861;HTU21D;33620;52.340;5.984;2024-03-08T07:44:22;2.54;83.55
47861;HTU21D;33620;52.340;5.984;2024-03-08T07:46:48;2.56;83.26
47861;HTU21D;33620;52.340;5.984;2024-03-08T07:49:14;2.61;83.36
47861;HTU21D;33620;52.340;5.984;2024-03-08T07:51:40;2.62;83.21
47861;HTU21D;33620;52.340;5.984;2024-03-08T07:54:06;2.69;83.40
47861;HTU21D;33620;52.340;5.984;2024-03-08T07:56:34;2.74;83.29
47861;HTU21D;33620;52.340;5.984;2024-03-08T07:59:02;2.76;83.10
47861;HTU21D;33620;52.340;5.984;2024-03-08T08:01:29;2.84;83.29
47861;HTU21D;33620;52.340;5.984;2024-03-08T08:03:55;2.90;83.11
47861;HTU21D;33620;52.340;5.984;2024-03-08T08:06:21;2.94;82.84
47861;HTU21D;33620;52.340;5.984;2024-03-08T08:08:47;2.97;82.56
47861;HTU21D;33620;52.340;5.984;2024-03-08T08:11:12;3.02;82.53
47861;HTU21D;33620;52.340;5.984;2024-03-08T08:13:38;3.06;82.04
47861;HTU21D;33620;52.340;5.984;2024-03-08T08:16:04;3.08;81.18
47861;HTU21D;33620;52.340;5.984;2024-03-08T08:18:31;3.14;81.39
47861;HTU21D;33620;52.340;5.984;2024-03-08T08:20:58;3.16;81.14
47861;HTU21D;33620;52.340;5.984;2024-03-08T08:23:25;3.18;80.64
47861;HTU21D;33620;52.340;5.984;2024-03-08T08:25:50;3.20;80.60
47861;HTU21D;33620;52.340;5.984;2024-03-08T08:28:16;3.26;80.75
47861;HTU21D;33620;52.340;5.984;2024-03-08T08:30:43;3.33;80.81
47861;HTU21D;33620;52.340;5.984;2024-03-08T08:33:08;3.38;80.56
47861;HTU21D;33620;52.340;5.984;2024-03-08T08:35:34;3.46;80.65
47861;HTU21D;33620;52.340;5.984;2024-03-08T08:37:59;3.48;80.00
47861;HTU21D;33620;52.340;5.984;2024-03-08T08:40:25;3.58;80.42
47861;HTU21D;33620;52.340;5.984;2024-03-08T08:42:53;3.63;79.56
47861;HTU21D;33620;52.340;5.984;2024-03-08T08:45:19;3.70;79.49
47861;HTU21D;33620;52.340;5.984;2024-03-08T08:47:44;3.75;79.49
47861;HTU21D;33620;52.340;5.984;2024-03-08T08:50:11;3.79;79.04
47861;HTU21D;33620;52.340;5.984;2024-03-08T08:52:39;3.83;78.99
47861;HTU21D;33620;52.340;5.984;2024-03-08T08:55:05;3.86;78.41
47861;HTU21D;33620;52.340;5.984;2024-03-08T08:57:32;3.91;78.61
47861;HTU21D;33620;52.340;5.984;2024-03-08T08:59:58;4.01;78.89
47861;HTU21D;33620;52.340;5.984;2024-03-08T09:02:24;4.05;78.51
47861;HTU21D;33620;52.340;5.984;2024-03-08T09:04:51;4.12;78.37
47861;HTU21D;33620;52.340;5.984;2024-03-08T09:07:16;4.17;78.18
47861;HTU21D;33620;52.340;5.984;2024-03-08T09:09:44;4.23;78.27
47861;HTU21D;33620;52.340;5.984;2024-03-08T09:12:09;4.31;78.22
47861;HTU21D;33620;52.340;5.984;2024-03-08T09:14:41;4.37;77.80
47861;HTU21D;33620;52.340;5.984;2024-03-08T09:17:07;4.49;78.21
47861;HTU21D;33620;52.340;5.984;2024-03-08T09:19:34;4.53;77.61
47861;HTU21D;33620;52.340;5.984;2024-03-08T09:22:00;4.58;77.21
47861;HTU21D;33620;52.340;5.984;2024-03-08T09:24:25;4.63;77.50
47861;HTU21D;33620;52.340;5.984;2024-03-08T09:26:51;4.73;77.32
47861;HTU21D;33620;52.340;5.984;2024-03-08T09:29:17;4.79;77.10
47861;HTU21D;33620;52.340;5.984;2024-03-08T09:31:42;4.88;77.19
47861;HTU21D;33620;52.340;5.984;2024-03-08T09:34:08;4.92;76.33
47861;HTU21D;33620;52.340;5.984;2024-03-08T09:36:34;4.98;76.44
47861;HTU21D;33620;52.340;5.984;2024-03-08T09:38:59;5.03;76.12
47861;HTU21D;33620;52.340;5.984;2024-03-08T09:41:25;5.10;76.31
47861;HTU21D;33620;52.340;5.984;2024-03-08T09:43:51;5.13;75.15
47861;HTU21D;33620;52.340;5.984;2024-03-08T09:46:18;5.19;75.78
47861;HTU21D;33620;52.340;5.984;2024-03-08T09:48:44;5.23;75.19
47861;HTU21D;33620;52.340;5.984;2024-03-08T09:51:12;5.33;75.36
47861;HTU21D;33620;52.340;5.984;2024-03-08T09:53:40;5.39;75.38
47861;HTU21D;33620;52.340;5.984;2024-03-08T09:56:07;5.47;75.20
47861;HTU21D;33620;52.340;5.984;2024-03-08T09:58:33;5.51;74.68
47861;HTU21D;33620;52.340;5.984;2024-03-08T10:00:59;5.55;75.17
47861;HTU21D;33620;52.340;5.984;2024-03-08T10:03:27;5.66;75.22
47861;HTU21D;33620;52.340;5.984;2024-03-08T10:05:54;5.68;73.93
47861;HTU21D;33620;52.340;5.984;2024-03-08T10:08:21;5.74;73.86
47861;HTU21D;33620;52.340;5.984;2024-03-08T10:10:47;5.78;73.44
47861;HTU21D;33620;52.340;5.984;2024-03-08T10:13:13;5.84;73.35
47861;HTU21D;33620;52.340;5.984;2024-03-08T10:15:39;5.90;73.99
47861;HTU21D;33620;52.340;5.984;2024-03-08T10:18:05;6.00;74.80
47861;HTU21D;33620;52.340;5.984;2024-03-08T10:20:31;6.04;72.80
47861;HTU21D;33620;52.340;5.984;2024-03-08T10:23:03;6.11;73.05
47861;HTU21D;33620;52.340;5.984;2024-03-08T10:25:33;6.16;73.35
47861;HTU21D;33620;52.340;5.984;2024-03-08T10:27:59;6.26;73.24
47861;HTU21D;33620;52.340;5.984;2024-03-08T10:30:24;6.31;72.63
47861;HTU21D;33620;52.340;5.984;2024-03-08T10:32:50;6.38;72.02
47861;HTU21D;33620;52.340;5.984;2024-03-08T10:35:17;6.46;71.96
47861;HTU21D;33620;52.340;5.984;2024-03-08T10:37:48;6.46;71.29
47861;HTU21D;33620;52.340;5.984;2024-03-08T10:40:19;6.57;71.64
47861;HTU21D;33620;52.340;5.984;2024-03-08T10:42:58;6.66;71.45
47861;HTU21D;33620;52.340;5.984;2024-03-08T10:45:40;6.71;70.85
47861;HTU21D;33620;52.340;5.984;2024-03-08T10:48:30;6.79;71.50
47861;HTU21D;33620;52.340;5.984;2024-03-08T10:51:02;6.81;70.62
47861;HTU21D;33620;52.340;5.984;2024-03-08T10:53:29;6.88;70.92
47861;HTU21D;33620;52.340;5.984;2024-03-08T10:55:56;6.98;71.32
47861;HTU21D;33620;52.340;5.984;2024-03-08T10:58:24;7.07;70.87
47861;HTU21D;33620;52.340;5.984;2024-03-08T11:00:57;7.13;69.96
47861;HTU21D;33620;52.340;5.984;2024-03-08T11:08:48;7.30;69.50
47861;HTU21D;33620;52.340;5.984;2024-03-08T11:11:29;7.32;70.06
47861;HTU21D;33620;52.340;5.984;2024-03-08T11:13:58;7.45;69.90
47861;HTU21D;33620;52.340;5.984;2024-03-08T11:18:58;7.48;68.59
47861;HTU21D;33620;52.340;5.984;2024-03-08T11:21:32;7.52;68.74
47861;HTU21D;33620;52.340;5.984;2024-03-08T11:24:10;7.54;68.95
47861;HTU21D;33620;52.340;5.984;2024-03-08T11:26:37;7.58;69.20
47861;HTU21D;33620;52.340;5.984;2024-03-08T11:29:36;7.61;68.71
47861;HTU21D;33620;52.340;5.984;2024-03-08T11:34:41;7.75;68.48
47861;HTU21D;33620;52.340;5.984;2024-03-08T11:37:13;7.78;67.76
47861;HTU21D;33620;52.340;5.984;2024-03-08T11:39:41;7.87;68.94
47861;HTU21D;33620;52.340;5.984;2024-03-08T11:42:11;7.97;68.04
47861;HTU21D;33620;52.340;5.984;2024-03-08T11:44:37;8.08;68.10
47861;HTU21D;33620;52.340;5.984;2024-03-08T11:47:04;8.12;67.06
47861;HTU21D;33620;52.340;5.984;2024-03-08T11:49:33;8.17;66.74
47861;HTU21D;33620;52.340;5.984;2024-03-08T11:51:58;8.18;66.29
47861;HTU21D;33620;52.340;5.984;2024-03-08T11:54:24;8.21;66.38
47861;HTU21D;33620;52.340;5.984;2024-03-08T11:56:51;8.23;66.43
47861;HTU21D;33620;52.340;5.984;2024-03-08T11:59:17;8.32;66.46
47861;HTU21D;33620;52.340;5.984;2024-03-08T12:01:43;8.36;66.82
47861;HTU21D;33620;52.340;5.984;2024-03-08T12:04:12;8.44;66.25
47861;HTU21D;33620;52.340;5.984;2024-03-08T12:06:40;8.48;65.92
47861;HTU21D;33620;52.340;5.984;2024-03-08T12:09:12;8.52;65.49
47861;HTU21D;33620;52.340;5.984;2024-03-08T12:11:38;8.59;65.25
47861;HTU21D;33620;52.340;5.984;2024-03-08T12:14:04;8.67;65.59
47861;HTU21D;33620;52.340;5.984;2024-03-08T12:16:29;8.73;65.27
47861;HTU21D;33620;52.340;5.984;2024-03-08T12:18:55;8.73;64.94
47861;HTU21D;33620;52.340;5.984;2024-03-08T12:21:21;8.75;63.47
47861;HTU21D;33620;52.340;5.984;2024-03-08T12:24:08;8.81;63.85
47861;HTU21D;33620;52.340;5.984;2024-03-08T12:26:35;8.85;63.73
47861;HTU21D;33620;52.340;5.984;2024-03-08T12:29:21;8.94;64.24
47861;HTU21D;33620;52.340;5.984;2024-03-08T12:31:50;9.00;63.53
47861;HTU21D;33620;52.340;5.984;2024-03-08T12:34:16;9.01;62.34
47861;HTU21D;33620;52.340;5.984;2024-03-08T12:36:46;9.03;61.67
47861;HTU21D;33620;52.340;5.984;2024-03-08T12:39:13;9.04;61.81
47861;HTU21D;33620;52.340;5.984;2024-03-08T12:41:41;9.09;62.52
47861;HTU21D;33620;52.340;5.984;2024-03-08T12:44:06;9.16;62.04
47861;HTU21D;33620;52.340;5.984;2024-03-08T12:46:37;9.21;62.56
47861;HTU21D;33620;52.340;5.984;2024-03-08T12:49:06;9.26;61.83
47861;HTU21D;33620;52.340;5.984;2024-03-08T12:51:32;9.38;61.89
47861;HTU21D;33620;52.340;5.984;2024-03-08T12:53:58;9.40;59.52
47861;HTU21D;33620;52.340;5.984;2024-03-08T12:56:31;9.49;57.74
47861;HTU21D;33620;52.340;5.984;2024-03-08T12:58:58;9.55;58.31
47861;HTU21D;33620;52.340;5.984;2024-03-08T13:01:23;9.57;57.95
47861;HTU21D;33620;52.340;5.984;2024-03-08T13:03:48;9.69;58.32
47861;HTU21D;33620;52.340;5.984;2024-03-08T13:06:16;9.78;58.27
47861;HTU21D;33620;52.340;5.984;2024-03-08T13:08:42;9.71;56.67
47861;HTU21D;33620;52.340;5.984;2024-03-08T13:11:09;9.72;57.66
47861;HTU21D;33620;52.340;5.984;2024-03-08T13:13:41;9.74;55.90
47861;HTU21D;33620;52.340;5.984;2024-03-08T13:16:08;9.69;56.26
47861;HTU21D;33620;52.340;5.984;2024-03-08T13:18:34;9.74;57.48
47861;HTU21D;33620;52.340;5.984;2024-03-08T13:20:59;9.81;56.69
47861;HTU21D;33620;52.340;5.984;2024-03-08T13:23:30;9.91;57.29
47861;HTU21D;33620;52.340;5.984;2024-03-08T13:25:55;9.92;55.94
47861;HTU21D;33620;52.340;5.984;2024-03-08T13:28:22;9.96;56.37
47861;HTU21D;33620;52.340;5.984;2024-03-08T13:30:53;9.98;55.97
47861;HTU21D;33620;52.340;5.984;2024-03-08T13:33:18;9.93;55.18
47861;HTU21D;33620;52.340;5.984;2024-03-08T13:35:44;9.86;54.13
47861;HTU21D;33620;52.340;5.984;2024-03-08T13:38:09;9.89;56.03
47861;HTU21D;33620;52.340;5.984;2024-03-08T13:40:38;9.91;55.41
47861;HTU21D;33620;52.340;5.984;2024-03-08T13:43:05;9.98;55.28
47861;HTU21D;33620;52.340;5.984;2024-03-08T13:45:33;9.98;54.89
47861;HTU21D;33620;52.340;5.984;2024-03-08T13:47:58;10.07;55.11
47861;HTU21D;33620;52.340;5.984;2024-03-08T13:50:24;10.10;54.07
47861;HTU21D;33620;52.340;5.984;2024-03-08T13:52:51;10.12;54.52
47861;HTU21D;33620;52.340;5.984;2024-03-08T13:55:18;10.22;54.46
47861;HTU21D;33620;52.340;5.984;2024-03-08T13:57:43;10.18;54.09
47861;HTU21D;33620;52.340;5.984;2024-03-08T14:00:11;10.22;55.37
47861;HTU21D;33620;52.340;5.984;2024-03-08T14:02:36;10.28;54.75
47861;HTU21D;33620;52.340;5.984;2024-03-08T14:05:02;10.28;53.55
47861;HTU21D;33620;52.340;5.984;2024-03-08T14:07:28;10.33;54.52
47861;HTU21D;33620;52.340;5.984;2024-03-08T14:09:54;10.31;54.01
47861;HTU21D;33620;52.340;5.984;2024-03-08T14:12:20;10.34;54.27
47861;HTU21D;33620;52.340;5.984;2024-03-08T14:14:45;10.35;54.74
47861;HTU21D;33620;52.340;5.984;2024-03-08T14:17:11;10.36;54.72
47861;HTU21D;33620;52.340;5.984;2024-03-08T14:19:42;10.38;53.67
47861;HTU21D;33620;52.340;5.984;2024-03-08T14:22:07;10.40;54.23
47861;HTU21D;33620;52.340;5.984;2024-03-08T14:24:36;10.48;54.06
47861;HTU21D;33620;52.340;5.984;2024-03-08T14:27:02;10.54;54.61
47861;HTU21D;33620;52.340;5.984;2024-03-08T14:29:31;10.53;53.23
47861;HTU21D;33620;52.340;5.984;2024-03-08T14:31:58;10.49;53.20
47861;HTU21D;33620;52.340;5.984;2024-03-08T14:34:25;10.51;53.37
47861;HTU21D;33620;52.340;5.984;2024-03-08T14:36:52;10.53;52.91
47861;HTU21D;33620;52.340;5.984;2024-03-08T14:39:18;10.50;52.75
47861;HTU21D;33620;52.340;5.984;2024-03-08T14:41:47;10.44;52.52
47861;HTU21D;33620;52.340;5.984;2024-03-08T14:44:12;10.46;52.91
47861;HTU21D;33620;52.340;5.984;2024-03-08T14:46:38;10.43;52.78
47861;HTU21D;33620;52.340;5.984;2024-03-08T14:49:04;10.39;53.24
47861;HTU21D;33620;52.340;5.984;2024-03-08T14:51:29;10.48;54.31
47861;HTU21D;33620;52.340;5.984;2024-03-08T14:53:54;10.50;53.01
47861;HTU21D;33620;52.340;5.984;2024-03-08T14:56:21;10.52;52.79
47861;HTU21D;33620;52.340;5.984;2024-03-08T14:58:48;10.57;52.78
47861;HTU21D;33620;52.340;5.984;2024-03-08T15:01:17;10.67;52.94
47861;HTU21D;33620;52.340;5.984;2024-03-08T15:03:47;10.66;52.31
47861;HTU21D;33620;52.340;5.984;2024-03-08T15:06:13;10.64;52.85
47861;HTU21D;33620;52.340;5.984;2024-03-08T15:08:40;10.60;52.64
47861;HTU21D;33620;52.340;5.984;2024-03-08T15:11:06;10.54;53.14
47861;HTU21D;33620;52.340;5.984;2024-03-08T15:13:32;10.49;52.76
47861;HTU21D;33620;52.340;5.984;2024-03-08T15:16:10;10.48;53.06
47861;HTU21D;33620;52.340;5.984;2024-03-08T15:18:42;10.48;53.28
47861;HTU21D;33620;52.340;5.984;2024-03-08T15:21:12;10.38;52.71
47861;HTU21D;33620;52.340;5.984;2024-03-08T15:23:43;10.38;54.12
47861;HTU21D;33620;52.340;5.984;2024-03-08T15:26:12;10.39;53.97
47861;HTU21D;33620;52.340;5.984;2024-03-08T15:28:38;10.38;53.50
47861;HTU21D;33620;52.340;5.984;2024-03-08T15:31:05;10.39;54.00
47861;HTU21D;33620;52.340;5.984;2024-03-08T15:33:32;10.36;53.91
47861;HTU21D;33620;52.340;5.984;2024-03-08T15:35:58;10.40;54.99
47861;HTU21D;33620;52.340;5.984;2024-03-08T15:38:25;10.41;54.81